sensor_id;sensor_type;location;lat;lon;timestamp;P1;durP1;ratioP1;P2;durP2;ratioP2
18190;SDS011;47004;51.366;12.348;2023-07-16T00:01:28;9.83;;;5.13;;
18190;SDS011;47004;51.366;12.348;2023-07-16T00:03:30;7.63;;;5.30;;
18190;SDS011;47004;51.366;12.348;2023-07-16T00:05:32;7.13;;;4.80;;
18190;SDS011;47004;51.366;12.348;2023-07-16T00:07:34;6.70;;;4.60;;
18190;SDS011;47004;51.366;12.348;2023-07-16T00:09:36;6.93;;;3.90;;
18190;SDS011;47004;51.366;12.348;2023-07-16T00:11:38;5.60;;;3.80;;
18190;SDS011;47004;51.366;12.348;2023-07-16T00:13:40;6.93;;;3.83;;
18190;SDS011;47004;51.366;12.348;2023-07-16T00:15:46;7.27;;;3.83;;
18190;SDS011;47004;51.366;12.348;2023-07-16T00:17:49;5.70;;;3.90;;
18190;SDS011;47004;51.366;12.348;2023-07-16T00:19:51;12.40;;;4.40;;
18190;SDS011;47004;51.366;12.348;2023-07-16T00:21:53;6.03;;;4.17;;
18190;SDS011;47004;51.366;12.348;2023-07-16T00:23:55;6.67;;;3.73;;
18190;SDS011;47004;51.366;12.348;2023-07-16T00:25:57;12.30;;;4.13;;
18190;SDS011;47004;51.366;12.348;2023-07-16T00:27:59;8.50;;;4.27;;
18190;SDS011;47004;51.366;12.348;2023-07-16T00:30:00;11.37;;;4.97;;
18190;SDS011;47004;51.366;12.348;2023-07-16T00:32:01;12.83;;;5.13;;
18190;SDS011;47004;51.366;12.348;2023-07-16T00:34:07;10.27;;;5.33;;
18190;SDS011;47004;51.366;12.348;2023-07-16T00:36:09;8.60;;;5.17;;
18190;SDS011;47004;51.366;12.348;2023-07-16T00:38:11;10.47;;;5.20;;
18190;SDS011;47004;51.366;12.348;2023-07-16T00:40:13;15.17;;;5.40;;
18190;SDS011;47004;51.366;12.348;2023-07-16T00:42:15;10.83;;;5.53;;
18190;SDS011;47004;51.366;12.348;2023-07-16T00:44:17;8.00;;;4.63;;
18190;SDS011;47004;51.366;12.348;2023-07-16T00:46:19;8.57;;;5.43;;
18190;SDS011;47004;51.366;12.348;2023-07-16T00:48:20;9.37;;;5.20;;
18190;SDS011;47004;51.366;12.348;2023-07-16T00:50:24;10.33;;;5.30;;
18190;SDS011;47004;51.366;12.348;2023-07-16T00:52:25;11.07;;;5.47;;
18190;SDS011;47004;51.366;12.348;2023-07-16T00:54:28;8.13;;;5.27;;
18190;SDS011;47004;51.366;12.348;2023-07-16T00:56:32;6.77;;;4.77;;
18190;SDS011;47004;51.366;12.348;2023-07-16T00:58:34;8.77;;;5.63;;
18190;SDS011;47004;51.366;12.348;2023-07-16T01:00:36;8.90;;;5.13;;
18190;SDS011;47004;51.366;12.348;2023-07-16T01:02:40;7.40;;;4.90;;
18190;SDS011;47004;51.366;12.348;2023-07-16T01:04:41;7.43;;;4.80;;
18190;SDS011;47004;51.366;12.348;2023-07-16T01:06:45;10.47;;;4.97;;
18190;SDS011;47004;51.366;12.348;2023-07-16T01:08:52;11.57;;;5.13;;
18190;SDS011;47004;51.366;12.348;2023-07-16T01:10:59;7.67;;;4.80;;
18190;SDS011;47004;51.366;12.348;2023-07-16T01:13:02;12.07;;;4.97;;
18190;SDS011;47004;51.366;12.348;2023-07-16T01:15:05;11.43;;;5.27;;
18190;SDS011;47004;51.366;12.348;2023-07-16T01:17:07;11.50;;;5.27;;
18190;SDS011;47004;51.366;12.348;2023-07-16T01:19:08;8.07;;;4.27;;
18190;SDS011;47004;51.366;12.348;2023-07-16T01:21:10;8.23;;;5.00;;
18190;SDS011;47004;51.366;12.348;2023-07-16T01:23:18;6.83;;;4.83;;
18190;SDS011;47004;51.366;12.348;2023-07-16T01:25:36;9.00;;;5.60;;
18190;SDS011;47004;51.366;12.348;2023-07-16T01:27:59;12.43;;;5.27;;
18190;SDS011;47004;51.366;12.348;2023-07-16T01:30:16;7.90;;;5.10;;
18190;SDS011;47004;51.366;12.348;2023-07-16T01:32:20;8.50;;;5.33;;
18190;SDS011;47004;51.366;12.348;2023-07-16T01:34:23;7.57;;;4.90;;
18190;SDS011;47004;51.366;12.348;2023-07-16T01:36:28;10.97;;;5.60;;
18190;SDS011;47004;51.366;12.348;2023-07-16T01:38:30;13.13;;;5.33;;
18190;SDS011;47004;51.366;12.348;2023-07-16T01:40:33;7.97;;;5.20;;
18190;SDS011;47004;51.366;12.348;2023-07-16T01:42:35;10.13;;;5.50;;
18190;SDS011;47004;51.366;12.348;2023-07-16T01:44:37;9.97;;;5.60;;
18190;SDS011;47004;51.366;12.348;2023-07-16T01:46:39;13.60;;;5.37;;
18190;SDS011;47004;51.366;12.348;2023-07-16T01:48:41;6.97;;;4.80;;
18190;SDS011;47004;51.366;12.348;2023-07-16T01:50:42;13.83;;;5.23;;
18190;SDS011;47004;51.366;12.348;2023-07-16T01:52:43;7.73;;;4.93;;
18190;SDS011;47004;51.366;12.348;2023-07-16T01:54:45;8.60;;;4.97;;
18190;SDS011;47004;51.366;12.348;2023-07-16T01:56:50;11.07;;;5.00;;
18190;SDS011;47004;51.366;12.348;2023-07-16T01:58:52;9.77;;;5.60;;
18190;SDS011;47004;51.366;12.348;2023-07-16T02:00:54;9.23;;;5.50;;
18190;SDS011;47004;51.366;12.348;2023-07-16T02:02:57;8.00;;;4.90;;
18190;SDS011;47004;51.366;12.348;2023-07-16T02:04:59;7.93;;;4.83;;
18190;SDS011;47004;51.366;12.348;2023-07-16T02:07:01;11.00;;;5.40;;
18190;SDS011;47004;51.366;12.348;2023-07-16T02:09:03;9.80;;;4.87;;
18190;SDS011;47004;51.366;12.348;2023-07-16T02:11:04;10.33;;;4.73;;
18190;SDS011;47004;51.366;12.348;2023-07-16T02:13:06;9.87;;;5.37;;
18190;SDS011;47004;51.366;12.348;2023-07-16T02:15:08;7.53;;;5.50;;
18190;SDS011;47004;51.366;12.348;2023-07-16T02:17:11;8.07;;;4.93;;
18190;SDS011;47004;51.366;12.348;2023-07-16T02:19:14;6.80;;;4.47;;
18190;SDS011;47004;51.366;12.348;2023-07-16T02:21:16;7.13;;;4.80;;
18190;SDS011;47004;51.366;12.348;2023-07-16T02:23:18;5.23;;;4.10;;
18190;SDS011;47004;51.366;12.348;2023-07-16T02:25:19;9.47;;;4.43;;
18190;SDS011;47004;51.366;12.348;2023-07-16T02:27:21;7.13;;;4.13;;
18190;SDS011;47004;51.366;12.348;2023-07-16T02:29:23;9.00;;;4.17;;
18190;SDS011;47004;51.366;12.348;2023-07-16T02:31:25;7.37;;;4.60;;
18190;SDS011;47004;51.366;12.348;2023-07-16T02:33:27;6.13;;;4.53;;
18190;SDS011;47004;51.366;12.348;2023-07-16T02:35:30;9.37;;;5.00;;
18190;SDS011;47004;51.366;12.348;2023-07-16T02:37:32;8.17;;;4.97;;
18190;SDS011;47004;51.366;12.348;2023-07-16T02:39:34;9.43;;;5.47;;
18190;SDS011;47004;51.366;12.348;2023-07-16T02:41:36;14.53;;;5.57;;
18190;SDS011;47004;51.366;12.348;2023-07-16T02:43:38;9.23;;;5.10;;
18190;SDS011;47004;51.366;12.348;2023-07-16T02:45:40;7.17;;;5.50;;
18190;SDS011;47004;51.366;12.348;2023-07-16T02:47:42;10.07;;;5.07;;
18190;SDS011;47004;51.366;12.348;2023-07-16T02:49:46;7.20;;;4.90;;
18190;SDS011;47004;51.366;12.348;2023-07-16T02:51:52;7.60;;;4.90;;
18190;SDS011;47004;51.366;12.348;2023-07-16T02:53:54;8.53;;;5.00;;
18190;SDS011;47004;51.366;12.348;2023-07-16T02:55:56;10.10;;;5.17;;
18190;SDS011;47004;51.366;12.348;2023-07-16T02:57:58;10.17;;;5.33;;
18190;SDS011;47004;51.366;12.348;2023-07-16T03:00:04;9.63;;;5.40;;
18190;SDS011;47004;51.366;12.348;2023-07-16T03:02:07;6.93;;;5.27;;
18190;SDS011;47004;51.366;12.348;2023-07-16T03:04:09;8.67;;;5.30;;
18190;SDS011;47004;51.366;12.348;2023-07-16T03:06:11;12.57;;;5.30;;
18190;SDS011;47004;51.366;12.348;2023-07-16T03:08:14;7.70;;;4.70;;
18190;SDS011;47004;51.366;12.348;2023-07-16T03:10:15;7.07;;;5.50;;
18190;SDS011;47004;51.366;12.348;2023-07-16T03:12:17;12.23;;;4.90;;
18190;SDS011;47004;51.366;12.348;2023-07-16T03:14:19;8.00;;;5.23;;
18190;SDS011;47004;51.366;12.348;2023-07-16T03:16:20;11.40;;;4.60;;
18190;SDS011;47004;51.366;12.348;2023-07-16T03:18:22;7.23;;;4.90;;
18190;SDS011;47004;51.366;12.348;2023-07-16T03:20:28;8.13;;;4.53;;
18190;SDS011;47004;51.366;12.348;2023-07-16T03:22:31;7.33;;;4.90;;
18190;SDS011;47004;51.366;12.348;2023-07-16T03:24:34;8.23;;;4.87;;
18190;SDS011;47004;51.366;12.348;2023-07-16T03:26:36;6.90;;;4.63;;
18190;SDS011;47004;51.366;12.348;2023-07-16T03:28:37;8.87;;;5.07;;
18190;SDS011;47004;51.366;12.348;2023-07-16T03:30:39;6.37;;;4.60;;
18190;SDS011;47004;51.366;12.348;2023-07-16T03:32:45;6.73;;;4.47;;
18190;SDS011;47004;51.366;12.348;2023-07-16T03:34:47;8.40;;;5.10;;
18190;SDS011;47004;51.366;12.348;2023-07-16T03:36:49;8.63;;;4.93;;
18190;SDS011;47004;51.366;12.348;2023-07-16T03:38:51;6.00;;;4.50;;
18190;SDS011;47004;51.366;12.348;2023-07-16T03:40:54;10.23;;;4.63;;
18190;SDS011;47004;51.366;12.348;2023-07-16T03:42:56;7.57;;;4.80;;
18190;SDS011;47004;51.366;12.348;2023-07-16T03:44:58;8.20;;;4.90;;
18190;SDS011;47004;51.366;12.348;2023-07-16T03:47:00;7.70;;;4.57;;
18190;SDS011;47004;51.366;12.348;2023-07-16T03:49:02;7.07;;;4.70;;
18190;SDS011;47004;51.366;12.348;2023-07-16T03:51:03;7.20;;;4.83;;
18190;SDS011;47004;51.366;12.348;2023-07-16T03:53:05;7.30;;;4.93;;
18190;SDS011;47004;51.366;12.348;2023-07-16T03:55:07;6.83;;;4.87;;
18190;SDS011;47004;51.366;12.348;2023-07-16T03:57:10;6.97;;;3.87;;
18190;SDS011;47004;51.366;12.348;2023-07-16T03:59:12;7.73;;;4.73;;
18190;SDS011;47004;51.366;12.348;2023-07-16T04:01:14;7.87;;;4.53;;
18190;SDS011;47004;51.366;12.348;2023-07-16T04:03:15;8.50;;;4.30;;
18190;SDS011;47004;51.366;12.348;2023-07-16T04:05:17;10.77;;;4.83;;
18190;SDS011;47004;51.366;12.348;2023-07-16T04:07:19;8.33;;;4.77;;
18190;SDS011;47004;51.366;12.348;2023-07-16T04:09:21;5.83;;;4.30;;
18190;SDS011;47004;51.366;12.348;2023-07-16T04:11:23;9.93;;;4.53;;
18190;SDS011;47004;51.366;12.348;2023-07-16T04:13:27;7.93;;;4.60;;
18190;SDS011;47004;51.366;12.348;2023-07-16T04:15:29;8.43;;;4.50;;
18190;SDS011;47004;51.366;12.348;2023-07-16T04:17:30;8.90;;;4.33;;
18190;SDS011;47004;51.366;12.348;2023-07-16T04:19:32;5.87;;;3.93;;
18190;SDS011;47004;51.366;12.348;2023-07-16T04:21:34;7.77;;;4.10;;
18190;SDS011;47004;51.366;12.348;2023-07-16T04:23:36;8.23;;;4.67;;
18190;SDS011;47004;51.366;12.348;2023-07-16T04:25:38;6.87;;;4.40;;
18190;SDS011;47004;51.366;12.348;2023-07-16T04:27:40;8.03;;;4.40;;
18190;SDS011;47004;51.366;12.348;2023-07-16T04:29:45;7.93;;;4.07;;
18190;SDS011;47004;51.366;12.348;2023-07-16T04:31:47;6.63;;;4.07;;
18190;SDS011;47004;51.366;12.348;2023-07-16T04:33:49;4.57;;;4.00;;
18190;SDS011;47004;51.366;12.348;2023-07-16T04:35:51;5.47;;;3.80;;
18190;SDS011;47004;51.366;12.348;2023-07-16T04:37:53;7.83;;;4.10;;
18190;SDS011;47004;51.366;12.348;2023-07-16T04:39:55;6.20;;;4.03;;
18190;SDS011;47004;51.366;12.348;2023-07-16T04:41:57;6.63;;;4.10;;
18190;SDS011;47004;51.366;12.348;2023-07-16T04:43:58;6.60;;;4.37;;
18190;SDS011;47004;51.366;12.348;2023-07-16T04:46:01;7.87;;;4.20;;
18190;SDS011;47004;51.366;12.348;2023-07-16T04:48:03;9.37;;;4.50;;
18190;SDS011;47004;51.366;12.348;2023-07-16T04:50:05;7.50;;;3.67;;
18190;SDS011;47004;51.366;12.348;2023-07-16T04:52:08;8.67;;;3.93;;
18190;SDS011;47004;51.366;12.348;2023-07-16T04:54:08;7.43;;;4.03;;
18190;SDS011;47004;51.366;12.348;2023-07-16T04:56:11;5.93;;;3.80;;
18190;SDS011;47004;51.366;12.348;2023-07-16T04:58:13;4.53;;;3.57;;
18190;SDS011;47004;51.366;12.348;2023-07-16T05:00:15;4.73;;;3.80;;
18190;SDS011;47004;51.366;12.348;2023-07-16T05:02:19;7.03;;;3.60;;
18190;SDS011;47004;51.366;12.348;2023-07-16T05:04:20;6.13;;;3.47;;
18190;SDS011;47004;51.366;12.348;2023-07-16T05:06:22;6.57;;;3.70;;
18190;SDS011;47004;51.366;12.348;2023-07-16T05:08:24;4.63;;;3.37;;
18190;SDS011;47004;51.366;12.348;2023-07-16T05:10:26;7.87;;;3.67;;
18190;SDS011;47004;51.366;12.348;2023-07-16T05:12:29;7.90;;;3.57;;
18190;SDS011;47004;51.366;12.348;2023-07-16T05:14:31;4.47;;;3.17;;
18190;SDS011;47004;51.366;12.348;2023-07-16T05:16:33;6.20;;;3.47;;
18190;SDS011;47004;51.366;12.348;2023-07-16T05:18:36;4.53;;;3.37;;
18190;SDS011;47004;51.366;12.348;2023-07-16T05:20:38;7.83;;;3.40;;
18190;SDS011;47004;51.366;12.348;2023-07-16T05:22:39;8.50;;;3.40;;
18190;SDS011;47004;51.366;12.348;2023-07-16T05:24:40;5.27;;;3.50;;
18190;SDS011;47004;51.366;12.348;2023-07-16T05:26:42;6.40;;;3.13;;
18190;SDS011;47004;51.366;12.348;2023-07-16T05:28:44;5.20;;;3.00;;
18190;SDS011;47004;51.366;12.348;2023-07-16T05:30:46;6.37;;;3.30;;
18190;SDS011;47004;51.366;12.348;2023-07-16T05:32:48;4.20;;;2.80;;
18190;SDS011;47004;51.366;12.348;2023-07-16T05:34:51;4.27;;;2.97;;
18190;SDS011;47004;51.366;12.348;2023-07-16T05:36:53;4.47;;;2.77;;
18190;SDS011;47004;51.366;12.348;2023-07-16T05:38:55;5.13;;;2.80;;
18190;SDS011;47004;51.366;12.348;2023-07-16T05:40:59;5.13;;;2.50;;
18190;SDS011;47004;51.366;12.348;2023-07-16T05:43:03;5.83;;;2.87;;
18190;SDS011;47004;51.366;12.348;2023-07-16T05:45:05;4.03;;;2.60;;
18190;SDS011;47004;51.366;12.348;2023-07-16T05:47:07;4.70;;;2.50;;
18190;SDS011;47004;51.366;12.348;2023-07-16T05:49:09;3.47;;;2.50;;
18190;SDS011;47004;51.366;12.348;2023-07-16T05:51:13;3.10;;;2.00;;
18190;SDS011;47004;51.366;12.348;2023-07-16T05:53:15;4.53;;;2.37;;
18190;SDS011;47004;51.366;12.348;2023-07-16T05:55:17;4.33;;;2.63;;
18190;SDS011;47004;51.366;12.348;2023-07-16T05:57:19;4.43;;;1.90;;
18190;SDS011;47004;51.366;12.348;2023-07-16T05:59:20;2.40;;;2.00;;
18190;SDS011;47004;51.366;12.348;2023-07-16T06:01:22;4.40;;;2.17;;
18190;SDS011;47004;51.366;12.348;2023-07-16T06:03:24;4.50;;;2.00;;
18190;SDS011;47004;51.366;12.348;2023-07-16T06:05:26;4.27;;;2.40;;
18190;SDS011;47004;51.366;12.348;2023-07-16T06:07:33;2.63;;;2.27;;
18190;SDS011;47004;51.366;12.348;2023-07-16T06:09:35;5.60;;;2.00;;
18190;SDS011;47004;51.366;12.348;2023-07-16T06:11:37;4.13;;;1.83;;
18190;SDS011;47004;51.366;12.348;2023-07-16T06:13:39;4.57;;;2.23;;
18190;SDS011;47004;51.366;12.348;2023-07-16T06:15:41;2.47;;;1.87;;
18190;SDS011;47004;51.366;12.348;2023-07-16T06:17:43;3.73;;;2.00;;
18190;SDS011;47004;51.366;12.348;2023-07-16T06:19:44;3.53;;;2.00;;
18190;SDS011;47004;51.366;12.348;2023-07-16T06:21:48;2.63;;;1.83;;
18190;SDS011;47004;51.366;12.348;2023-07-16T06:23:51;2.60;;;1.90;;
18190;SDS011;47004;51.366;12.348;2023-07-16T06:25:53;2.37;;;1.90;;
18190;SDS011;47004;51.366;12.348;2023-07-16T06:27:55;3.40;;;1.80;;
18190;SDS011;47004;51.366;12.348;2023-07-16T06:29:57;4.30;;;2.10;;
18190;SDS011;47004;51.366;12.348;2023-07-16T06:31:59;5.30;;;1.93;;
18190;SDS011;47004;51.366;12.348;2023-07-16T06:34:02;4.23;;;2.10;;
18190;SDS011;47004;51.366;12.348;2023-07-16T06:36:04;3.00;;;1.80;;
18190;SDS011;47004;51.366;12.348;2023-07-16T06:38:06;3.73;;;2.10;;
18190;SDS011;47004;51.366;12.348;2023-07-16T06:40:10;4.87;;;2.13;;
18190;SDS011;47004;51.366;12.348;2023-07-16T06:42:12;6.23;;;2.10;;
18190;SDS011;47004;51.366;12.348;2023-07-16T06:44:14;4.10;;;2.10;;
18190;SDS011;47004;51.366;12.348;2023-07-16T06:46:16;3.83;;;1.70;;
18190;SDS011;47004;51.366;12.348;2023-07-16T06:48:18;3.27;;;1.87;;
18190;SDS011;47004;51.366;12.348;2023-07-16T06:50:20;5.87;;;1.83;;
18190;SDS011;47004;51.366;12.348;2023-07-16T06:52:22;5.67;;;1.97;;
18190;SDS011;47004;51.366;12.348;2023-07-16T06:54:27;3.83;;;1.70;;
18190;SDS011;47004;51.366;12.348;2023-07-16T06:56:30;5.77;;;1.90;;
18190;SDS011;47004;51.366;12.348;2023-07-16T06:58:32;4.50;;;1.83;;
18190;SDS011;47004;51.366;12.348;2023-07-16T07:00:35;5.13;;;1.60;;
18190;SDS011;47004;51.366;12.348;2023-07-16T07:02:36;6.63;;;1.90;;
18190;SDS011;47004;51.366;12.348;2023-07-16T07:04:38;6.70;;;1.87;;
18190;SDS011;47004;51.366;12.348;2023-07-16T07:06:40;4.40;;;2.03;;
18190;SDS011;47004;51.366;12.348;2023-07-16T07:08:42;4.30;;;1.60;;
18190;SDS011;47004;51.366;12.348;2023-07-16T07:10:44;6.87;;;1.90;;
18190;SDS011;47004;51.366;12.348;2023-07-16T07:12:48;3.20;;;1.53;;
18190;SDS011;47004;51.366;12.348;2023-07-16T07:14:50;5.37;;;1.97;;
18190;SDS011;47004;51.366;12.348;2023-07-16T07:16:52;3.43;;;1.47;;
18190;SDS011;47004;51.366;12.348;2023-07-16T07:18:54;4.63;;;2.00;;
18190;SDS011;47004;51.366;12.348;2023-07-16T07:20:57;4.17;;;1.63;;
18190;SDS011;47004;51.366;12.348;2023-07-16T07:22:59;4.43;;;1.73;;
18190;SDS011;47004;51.366;12.348;2023-07-16T07:25:03;5.70;;;1.53;;
18190;SDS011;47004;51.366;12.348;2023-07-16T07:27:06;6.03;;;1.90;;
18190;SDS011;47004;51.366;12.348;2023-07-16T07:29:12;3.43;;;1.80;;
18190;SDS011;47004;51.366;12.348;2023-07-16T07:31:14;4.87;;;1.50;;
18190;SDS011;47004;51.366;12.348;2023-07-16T07:33:16;4.43;;;1.40;;
18190;SDS011;47004;51.366;12.348;2023-07-16T07:35:18;4.50;;;1.73;;
18190;SDS011;47004;51.366;12.348;2023-07-16T07:37:20;6.23;;;1.63;;
18190;SDS011;47004;51.366;12.348;2023-07-16T07:39:21;2.67;;;1.50;;
18190;SDS011;47004;51.366;12.348;2023-07-16T07:41:23;4.33;;;1.60;;
18190;SDS011;47004;51.366;12.348;2023-07-16T07:43:26;4.33;;;1.60;;
18190;SDS011;47004;51.366;12.348;2023-07-16T07:45:29;6.00;;;1.50;;
18190;SDS011;47004;51.366;12.348;2023-07-16T07:47:31;4.50;;;1.60;;
18190;SDS011;47004;51.366;12.348;2023-07-16T07:49:33;2.93;;;1.53;;
18190;SDS011;47004;51.366;12.348;2023-07-16T07:51:36;3.57;;;1.60;;
18190;SDS011;47004;51.366;12.348;2023-07-16T07:53:38;3.53;;;1.73;;
18190;SDS011;47004;51.366;12.348;2023-07-16T07:55:43;4.03;;;1.40;;
18190;SDS011;47004;51.366;12.348;2023-07-16T07:57:45;4.33;;;1.30;;
18190;SDS011;47004;51.366;12.348;2023-07-16T07:59:47;4.33;;;1.57;;
18190;SDS011;47004;51.366;12.348;2023-07-16T08:01:53;6.07;;;1.67;;
18190;SDS011;47004;51.366;12.348;2023-07-16T08:03:54;5.10;;;1.83;;
18190;SDS011;47004;51.366;12.348;2023-07-16T08:05:56;5.30;;;1.53;;
18190;SDS011;47004;51.366;12.348;2023-07-16T08:07:58;3.67;;;1.40;;
18190;SDS011;47004;51.366;12.348;2023-07-16T08:10:00;3.33;;;1.30;;
18190;SDS011;47004;51.366;12.348;2023-07-16T08:12:02;5.80;;;1.40;;
18190;SDS011;47004;51.366;12.348;2023-07-16T08:14:03;4.90;;;1.57;;
18190;SDS011;47004;51.366;12.348;2023-07-16T08:16:05;6.03;;;1.60;;
18190;SDS011;47004;51.366;12.348;2023-07-16T08:18:08;4.83;;;1.37;;
18190;SDS011;47004;51.366;12.348;2023-07-16T08:20:10;5.57;;;1.60;;
18190;SDS011;47004;51.366;12.348;2023-07-16T08:22:13;2.50;;;1.40;;
18190;SDS011;47004;51.366;12.348;2023-07-16T08:24:15;4.50;;;1.83;;
18190;SDS011;47004;51.366;12.348;2023-07-16T08:26:17;2.97;;;1.20;;
18190;SDS011;47004;51.366;12.348;2023-07-16T08:28:19;5.57;;;1.40;;
18190;SDS011;47004;51.366;12.348;2023-07-16T08:30:20;6.07;;;1.50;;
18190;SDS011;47004;51.366;12.348;2023-07-16T08:32:22;3.93;;;1.30;;
18190;SDS011;47004;51.366;12.348;2023-07-16T08:34:26;4.57;;;1.20;;
18190;SDS011;47004;51.366;12.348;2023-07-16T08:36:28;2.87;;;1.40;;
18190;SDS011;47004;51.366;12.348;2023-07-16T08:38:30;3.90;;;1.33;;
18190;SDS011;47004;51.366;12.348;2023-07-16T08:40:31;6.87;;;1.30;;
18190;SDS011;47004;51.366;12.348;2023-07-16T08:42:36;3.10;;;1.10;;
18190;SDS011;47004;51.366;12.348;2023-07-16T08:44:38;3.40;;;1.40;;
18190;SDS011;47004;51.366;12.348;2023-07-16T08:46:40;5.70;;;1.60;;
18190;SDS011;47004;51.366;12.348;2023-07-16T08:48:42;4.90;;;1.70;;
18190;SDS011;47004;51.366;12.348;2023-07-16T08:50:48;4.93;;;1.67;;
18190;SDS011;47004;51.366;12.348;2023-07-16T08:52:50;4.37;;;1.43;;
18190;SDS011;47004;51.366;12.348;2023-07-16T08:54:54;5.87;;;1.60;;
18190;SDS011;47004;51.366;12.348;2023-07-16T08:56:56;4.53;;;1.37;;
18190;SDS011;47004;51.366;12.348;2023-07-16T08:58:59;5.43;;;1.50;;
18190;SDS011;47004;51.366;12.348;2023-07-16T09:01:01;7.07;;;1.50;;
18190;SDS011;47004;51.366;12.348;2023-07-16T09:03:04;4.50;;;1.40;;
18190;SDS011;47004;51.366;12.348;2023-07-16T09:05:06;3.07;;;1.47;;
18190;SDS011;47004;51.366;12.348;2023-07-16T09:07:11;6.07;;;2.03;;
18190;SDS011;47004;51.366;12.348;2023-07-16T09:09:19;5.37;;;1.67;;
18190;SDS011;47004;51.366;12.348;2023-07-16T09:11:22;2.67;;;1.30;;
18190;SDS011;47004;51.366;12.348;2023-07-16T09:13:24;4.13;;;1.40;;
18190;SDS011;47004;51.366;12.348;2023-07-16T09:15:28;1.77;;;1.43;;
18190;SDS011;47004;51.366;12.348;2023-07-16T09:17:30;6.23;;;1.60;;
18190;SDS011;47004;51.366;12.348;2023-07-16T09:19:35;5.50;;;1.50;;
18190;SDS011;47004;51.366;12.348;2023-07-16T09:21:37;3.73;;;1.57;;
18190;SDS011;47004;51.366;12.348;2023-07-16T09:23:39;2.90;;;1.50;;
18190;SDS011;47004;51.366;12.348;2023-07-16T09:25:43;6.77;;;1.73;;
18190;SDS011;47004;51.366;12.348;2023-07-16T09:27:48;7.97;;;1.30;;
18190;SDS011;47004;51.366;12.348;2023-07-16T09:29:50;2.30;;;1.30;;
18190;SDS011;47004;51.366;12.348;2023-07-16T09:31:52;3.30;;;1.33;;
18190;SDS011;47004;51.366;12.348;2023-07-16T09:33:56;3.03;;;1.40;;
18190;SDS011;47004;51.366;12.348;2023-07-16T09:35:58;3.70;;;1.50;;
18190;SDS011;47004;51.366;12.348;2023-07-16T09:38:02;3.17;;;1.53;;
18190;SDS011;47004;51.366;12.348;2023-07-16T09:40:07;4.77;;;1.30;;
18190;SDS011;47004;51.366;12.348;2023-07-16T09:42:11;5.83;;;1.40;;
18190;SDS011;47004;51.366;12.348;2023-07-16T09:44:16;4.27;;;1.30;;
18190;SDS011;47004;51.366;12.348;2023-07-16T09:46:18;4.77;;;1.40;;
18190;SDS011;47004;51.366;12.348;2023-07-16T09:48:20;3.73;;;1.40;;
18190;SDS011;47004;51.366;12.348;2023-07-16T09:50:22;3.07;;;1.17;;
18190;SDS011;47004;51.366;12.348;2023-07-16T09:52:25;2.63;;;1.43;;
18190;SDS011;47004;51.366;12.348;2023-07-16T09:54:29;5.50;;;1.40;;
18190;SDS011;47004;51.366;12.348;2023-07-16T09:56:35;4.83;;;1.50;;
18190;SDS011;47004;51.366;12.348;2023-07-16T09:58:40;3.97;;;1.27;;
18190;SDS011;47004;51.366;12.348;2023-07-16T10:00:42;3.10;;;1.23;;
18190;SDS011;47004;51.366;12.348;2023-07-16T10:02:45;2.73;;;1.40;;
18190;SDS011;47004;51.366;12.348;2023-07-16T10:04:47;4.30;;;1.30;;
18190;SDS011;47004;51.366;12.348;2023-07-16T10:06:50;2.57;;;1.20;;
18190;SDS011;47004;51.366;12.348;2023-07-16T10:08:52;3.00;;;1.50;;
18190;SDS011;47004;51.366;12.348;2023-07-16T10:10:54;3.10;;;1.50;;
18190;SDS011;47004;51.366;12.348;2023-07-16T10:13:01;5.90;;;1.67;;
18190;SDS011;47004;51.366;12.348;2023-07-16T10:15:05;2.30;;;1.40;;
18190;SDS011;47004;51.366;12.348;2023-07-16T10:17:11;3.40;;;1.50;;
18190;SDS011;47004;51.366;12.348;2023-07-16T10:19:13;4.57;;;1.30;;
18190;SDS011;47004;51.366;12.348;2023-07-16T10:21:24;4.87;;;1.40;;
18190;SDS011;47004;51.366;12.348;2023-07-16T10:23:26;3.10;;;1.37;;
18190;SDS011;47004;51.366;12.348;2023-07-16T10:25:39;2.93;;;1.50;;
18190;SDS011;47004;51.366;12.348;2023-07-16T10:27:42;4.30;;;1.33;;
18190;SDS011;47004;51.366;12.348;2023-07-16T10:29:45;2.73;;;1.33;;
18190;SDS011;47004;51.366;12.348;2023-07-16T10:31:47;3.50;;;1.20;;
18190;SDS011;47004;51.366;12.348;2023-07-16T10:33:57;4.90;;;1.50;;
18190;SDS011;47004;51.366;12.348;2023-07-16T10:36:00;4.10;;;1.33;;
18190;SDS011;47004;51.366;12.348;2023-07-16T10:38:02;4.83;;;1.20;;
18190;SDS011;47004;51.366;12.348;2023-07-16T10:40:04;5.73;;;1.60;;
18190;SDS011;47004;51.366;12.348;2023-07-16T10:42:10;4.80;;;1.30;;
18190;SDS011;47004;51.366;12.348;2023-07-16T10:46:16;2.80;;;1.43;;
18190;SDS011;47004;51.366;12.348;2023-07-16T10:48:24;2.30;;;1.40;;
18190;SDS011;47004;51.366;12.348;2023-07-16T10:50:26;4.03;;;1.67;;
18190;SDS011;47004;51.366;12.348;2023-07-16T10:52:28;4.53;;;1.40;;
18190;SDS011;47004;51.366;12.348;2023-07-16T10:54:30;5.60;;;1.27;;
18190;SDS011;47004;51.366;12.348;2023-07-16T10:56:33;4.00;;;1.60;;
18190;SDS011;47004;51.366;12.348;2023-07-16T10:58:37;5.10;;;1.63;;
18190;SDS011;47004;51.366;12.348;2023-07-16T11:00:40;3.90;;;1.53;;
18190;SDS011;47004;51.366;12.348;2023-07-16T11:02:44;3.67;;;1.50;;
18190;SDS011;47004;51.366;12.348;2023-07-16T11:04:46;2.87;;;1.53;;
18190;SDS011;47004;51.366;12.348;2023-07-16T11:06:49;4.10;;;1.20;;
18190;SDS011;47004;51.366;12.348;2023-07-16T11:08:51;3.60;;;1.47;;
18190;SDS011;47004;51.366;12.348;2023-07-16T11:10:54;3.87;;;1.67;;
18190;SDS011;47004;51.366;12.348;2023-07-16T11:12:56;5.70;;;1.60;;
18190;SDS011;47004;51.366;12.348;2023-07-16T11:14:58;5.33;;;1.63;;
18190;SDS011;47004;51.366;12.348;2023-07-16T11:17:04;3.90;;;1.50;;
18190;SDS011;47004;51.366;12.348;2023-07-16T11:19:08;2.83;;;1.30;;
18190;SDS011;47004;51.366;12.348;2023-07-16T11:21:10;4.17;;;1.60;;
18190;SDS011;47004;51.366;12.348;2023-07-16T11:23:13;3.43;;;1.70;;
18190;SDS011;47004;51.366;12.348;2023-07-16T11:25:15;4.83;;;1.60;;
18190;SDS011;47004;51.366;12.348;2023-07-16T11:27:21;3.40;;;1.63;;
18190;SDS011;47004;51.366;12.348;2023-07-16T11:29:23;2.97;;;1.40;;
18190;SDS011;47004;51.366;12.348;2023-07-16T11:31:24;5.10;;;1.57;;
18190;SDS011;47004;51.366;12.348;2023-07-16T11:33:26;2.83;;;1.30;;
18190;SDS011;47004;51.366;12.348;2023-07-16T11:35:37;3.23;;;1.40;;
18190;SDS011;47004;51.366;12.348;2023-07-16T11:37:40;3.43;;;1.53;;
18190;SDS011;47004;51.366;12.348;2023-07-16T11:39:42;3.40;;;1.60;;
18190;SDS011;47004;51.366;12.348;2023-07-16T11:41:53;4.13;;;1.70;;
18190;SDS011;47004;51.366;12.348;2023-07-16T11:43:58;4.20;;;1.47;;
18190;SDS011;47004;51.366;12.348;2023-07-16T11:46:01;2.97;;;1.50;;
18190;SDS011;47004;51.366;12.348;2023-07-16T11:48:03;2.97;;;1.50;;
18190;SDS011;47004;51.366;12.348;2023-07-16T11:50:06;3.03;;;1.47;;
18190;SDS011;47004;51.366;12.348;2023-07-16T11:52:10;4.13;;;1.60;;
18190;SDS011;47004;51.366;12.348;2023-07-16T11:54:12;3.60;;;1.57;;
18190;SDS011;47004;51.366;12.348;2023-07-16T11:56:14;2.50;;;1.40;;
18190;SDS011;47004;51.366;12.348;2023-07-16T11:58:16;3.87;;;1.50;;
18190;SDS011;47004;51.366;12.348;2023-07-16T12:00:18;5.43;;;1.40;;
18190;SDS011;47004;51.366;12.348;2023-07-16T12:02:20;7.10;;;1.70;;
18190;SDS011;47004;51.366;12.348;2023-07-16T12:04:22;2.60;;;1.47;;
18190;SDS011;47004;51.366;12.348;2023-07-16T12:06:24;4.93;;;1.52;;
18190;SDS011;47004;51.366;12.348;2023-07-16T12:08:27;2.85;;;1.50;;
18190;SDS011;47004;51.366;12.348;2023-07-16T12:10:29;3.67;;;1.57;;